Main page
METAR-TAF:

METAR-TAF

Airports :

Aurillac – Tronquières Airport

Aurillac, France

latitude: 44-53N, longitude: 002-25E, elevation: 639 m

Current weather observation

The report was made 29 minutes ago, at 23:00 UTC
Wind 3 kt from variable directions
Temperature 16°C
Humidity 94%
Pressure 1022 hPa
Visibility 10 km or more
Overcast at a height of 800 ft

METAR: LFLW 052300Z AUTO VRB03KT 9999 OVC008 16/15 Q1022

Time: 01:29 (23:29 UTC)

Forecast

The report was made 9 hours and 29 minutes ago, at 14:00 UTC
Forecast valid from 05 at 15 UTC to 05 at 24 UTC
Wind 8 kt from the West/Northwest
Visibility 10 km or more
Scattered clouds at a height of 3000 ft
Becoming
from 05 at 21 UTC to 05 at 23 UTC
Wind 2 kt from variable directions

TAF: LFLW 051400Z 0515/0524 30008KT 9999 SCT030 BECMG 0521/0523 VRB02KT

Weather observations and forecasts of more than 4000 airports (METAR and TAF reports).

The available stations are represented by yellow and red dots on the map.

Hover mouse over dot to see the name of the station.

Then click to see weather observations and forecasts.

To change the map : click on the green buttons with a black cross to zoom in, on the green button with a dash to zoom out, or on the green arrows for adjacent maps.


METAR-TAF: